sensor_id;sensor_type;location;lat;lon;timestamp;temperature;humidity
1546;DHT22;766;51.502;9.752;2023-05-23T00:02:07;16.20;99.90
1546;DHT22;766;51.502;9.752;2023-05-23T00:04:49;16.40;99.90
1546;DHT22;766;51.502;9.752;2023-05-23T00:07:27;16.40;99.90
1546;DHT22;766;51.502;9.752;2023-05-23T00:09:56;16.20;99.90
1546;DHT22;766;51.502;9.752;2023-05-23T00:12:34;16.10;99.90
1546;DHT22;766;51.502;9.752;2023-05-23T00:15:08;16.10;99.90
1546;DHT22;766;51.502;9.752;2023-05-23T00:17:39;16.20;99.90
1546;DHT22;766;51.502;9.752;2023-05-23T00:20:11;16.20;99.90
1546;DHT22;766;51.502;9.752;2023-05-23T00:22:42;16.30;99.90
1546;DHT22;766;51.502;9.752;2023-05-23T00:25:16;16.10;99.90
1546;DHT22;766;51.502;9.752;2023-05-23T00:27:50;16.10;99.90
1546;DHT22;766;51.502;9.752;2023-05-23T00:30:20;16.30;99.90
1546;DHT22;766;51.502;9.752;2023-05-23T00:32:52;16.40;99.90
1546;DHT22;766;51.502;9.752;2023-05-23T00:35:25;16.30;99.90
1546;DHT22;766;51.502;9.752;2023-05-23T00:37:56;16.20;99.90
1546;DHT22;766;51.502;9.752;2023-05-23T00:40:29;16.10;99.90
1546;DHT22;766;51.502;9.752;2023-05-23T00:43:07;16.30;99.90
1546;DHT22;766;51.502;9.752;2023-05-23T00:45:37;16.40;99.90
1546;DHT22;766;51.502;9.752;2023-05-23T00:48:06;16.20;99.90
1546;DHT22;766;51.502;9.752;2023-05-23T00:50:53;16.30;99.90
1546;DHT22;766;51.502;9.752;2023-05-23T00:53:24;16.40;99.90
1546;DHT22;766;51.502;9.752;2023-05-23T00:55:53;16.50;99.90
1546;DHT22;766;51.502;9.752;2023-05-23T00:58:22;16.50;99.90
1546;DHT22;766;51.502;9.752;2023-05-23T01:00:53;16.40;99.90
1546;DHT22;766;51.502;9.752;2023-05-23T01:03:26;16.40;99.90
1546;DHT22;766;51.502;9.752;2023-05-23T01:06:00;16.60;99.90
1546;DHT22;766;51.502;9.752;2023-05-23T01:08:29;16.70;99.90
1546;DHT22;766;51.502;9.752;2023-05-23T01:11:00;16.50;99.90
1546;DHT22;766;51.502;9.752;2023-05-23T01:13:37;16.50;99.90
1546;DHT22;766;51.502;9.752;2023-05-23T01:16:13;16.50;99.90
1546;DHT22;766;51.502;9.752;2023-05-23T01:18:50;16.60;99.90
1546;DHT22;766;51.502;9.752;2023-05-23T01:21:28;16.60;99.90
1546;DHT22;766;51.502;9.752;2023-05-23T01:24:12;16.70;99.90
1546;DHT22;766;51.502;9.752;2023-05-23T01:27:00;16.80;99.90
1546;DHT22;766;51.502;9.752;2023-05-23T01:29:36;16.70;99.90
1546;DHT22;766;51.502;9.752;2023-05-23T01:32:10;16.80;99.90
1546;DHT22;766;51.502;9.752;2023-05-23T01:34:40;16.70;99.90
1546;DHT22;766;51.502;9.752;2023-05-23T01:37:10;16.70;99.90
1546;DHT22;766;51.502;9.752;2023-05-23T01:39:42;16.40;99.90
1546;DHT22;766;51.502;9.752;2023-05-23T01:42:11;16.40;99.90
1546;DHT22;766;51.502;9.752;2023-05-23T01:44:44;16.50;99.90
1546;DHT22;766;51.502;9.752;2023-05-23T01:47:14;16.40;99.90
1546;DHT22;766;51.502;9.752;2023-05-23T01:49:46;16.50;99.90
1546;DHT22;766;51.502;9.752;2023-05-23T01:52:23;16.50;99.90
1546;DHT22;766;51.502;9.752;2023-05-23T01:54:55;16.50;99.90
1546;DHT22;766;51.502;9.752;2023-05-23T01:57:28;16.50;99.90
1546;DHT22;766;51.502;9.752;2023-05-23T01:59:59;16.40;99.90
1546;DHT22;766;51.502;9.752;2023-05-23T02:02:29;16.30;99.90
1546;DHT22;766;51.502;9.752;2023-05-23T02:05:04;16.50;99.90
1546;DHT22;766;51.502;9.752;2023-05-23T02:07:33;16.30;99.90
1546;DHT22;766;51.502;9.752;2023-05-23T02:10:07;16.30;99.90
1546;DHT22;766;51.502;9.752;2023-05-23T02:12:38;16.30;99.90
1546;DHT22;766;51.502;9.752;2023-05-23T02:15:14;16.20;99.90
1546;DHT22;766;51.502;9.752;2023-05-23T02:17:43;16.10;99.90
1546;DHT22;766;51.502;9.752;2023-05-23T02:20:12;16.00;99.90
1546;DHT22;766;51.502;9.752;2023-05-23T02:22:41;15.70;99.90
1546;DHT22;766;51.502;9.752;2023-05-23T02:25:10;15.70;99.90
1546;DHT22;766;51.502;9.752;2023-05-23T02:27:41;15.60;99.90
1546;DHT22;766;51.502;9.752;2023-05-23T02:30:22;15.50;99.90
1546;DHT22;766;51.502;9.752;2023-05-23T02:32:53;15.50;99.90
1546;DHT22;766;51.502;9.752;2023-05-23T02:35:29;15.50;99.90
1546;DHT22;766;51.502;9.752;2023-05-23T02:38:06;15.70;99.90
1546;DHT22;766;51.502;9.752;2023-05-23T02:40:40;15.50;99.90
1546;DHT22;766;51.502;9.752;2023-05-23T02:43:22;15.60;99.90
1546;DHT22;766;51.502;9.752;2023-05-23T02:45:55;15.60;99.90
1546;DHT22;766;51.502;9.752;2023-05-23T02:48:28;15.50;99.90
1546;DHT22;766;51.502;9.752;2023-05-23T02:50:58;15.50;99.90
1546;DHT22;766;51.502;9.752;2023-05-23T02:53:27;15.30;99.90
1546;DHT22;766;51.502;9.752;2023-05-23T02:55:57;15.30;99.90
1546;DHT22;766;51.502;9.752;2023-05-23T02:58:27;15.10;99.90
1546;DHT22;766;51.502;9.752;2023-05-23T03:01:05;15.20;99.90
1546;DHT22;766;51.502;9.752;2023-05-23T03:03:37;15.30;99.90
1546;DHT22;766;51.502;9.752;2023-05-23T03:06:10;15.20;99.90
1546;DHT22;766;51.502;9.752;2023-05-23T03:08:43;15.30;99.90
1546;DHT22;766;51.502;9.752;2023-05-23T03:11:13;15.00;99.90
1546;DHT22;766;51.502;9.752;2023-05-23T03:13:46;15.00;99.90
1546;DHT22;766;51.502;9.752;2023-05-23T03:16:19;14.90;99.90
1546;DHT22;766;51.502;9.752;2023-05-23T03:18:52;14.80;99.90
1546;DHT22;766;51.502;9.752;2023-05-23T03:21:24;14.80;99.90
1546;DHT22;766;51.502;9.752;2023-05-23T03:23:53;14.90;99.90
1546;DHT22;766;51.502;9.752;2023-05-23T03:26:25;15.10;99.90
1546;DHT22;766;51.502;9.752;2023-05-23T03:28:55;15.00;99.90
1546;DHT22;766;51.502;9.752;2023-05-23T03:31:28;14.80;99.90
1546;DHT22;766;51.502;9.752;2023-05-23T03:34:01;14.90;99.90
1546;DHT22;766;51.502;9.752;2023-05-23T03:36:31;14.90;99.90
1546;DHT22;766;51.502;9.752;2023-05-23T03:39:02;14.80;99.90
1546;DHT22;766;51.502;9.752;2023-05-23T03:41:33;14.90;99.90
1546;DHT22;766;51.502;9.752;2023-05-23T03:44:10;14.70;99.90
1546;DHT22;766;51.502;9.752;2023-05-23T03:46:42;14.60;99.90
1546;DHT22;766;51.502;9.752;2023-05-23T03:49:14;14.60;99.90
1546;DHT22;766;51.502;9.752;2023-05-23T03:51:43;14.80;99.90
1546;DHT22;766;51.502;9.752;2023-05-23T03:54:11;14.80;99.90
1546;DHT22;766;51.502;9.752;2023-05-23T03:56:50;14.70;99.90
1546;DHT22;766;51.502;9.752;2023-05-23T03:59:24;14.80;99.90
1546;DHT22;766;51.502;9.752;2023-05-23T04:01:57;14.70;99.90
1546;DHT22;766;51.502;9.752;2023-05-23T04:04:28;14.60;99.90
1546;DHT22;766;51.502;9.752;2023-05-23T04:06:58;14.60;99.90
1546;DHT22;766;51.502;9.752;2023-05-23T04:09:28;14.40;99.90
1546;DHT22;766;51.502;9.752;2023-05-23T04:12:08;14.40;99.90
1546;DHT22;766;51.502;9.752;2023-05-23T04:14:42;14.30;99.90
1546;DHT22;766;51.502;9.752;2023-05-23T04:17:15;14.30;99.90
1546;DHT22;766;51.502;9.752;2023-05-23T04:19:44;14.30;99.90
1546;DHT22;766;51.502;9.752;2023-05-23T04:22:12;14.10;99.90
1546;DHT22;766;51.502;9.752;2023-05-23T04:24:43;14.30;99.90
1546;DHT22;766;51.502;9.752;2023-05-23T04:27:12;14.20;99.90
1546;DHT22;766;51.502;9.752;2023-05-23T04:29:42;14.20;99.90
1546;DHT22;766;51.502;9.752;2023-05-23T04:32:18;14.20;99.90
1546;DHT22;766;51.502;9.752;2023-05-23T04:34:50;14.00;99.90
1546;DHT22;766;51.502;9.752;2023-05-23T04:37:21;13.90;99.90
1546;DHT22;766;51.502;9.752;2023-05-23T04:39:52;14.00;99.90
1546;DHT22;766;51.502;9.752;2023-05-23T04:42:26;14.10;99.90
1546;DHT22;766;51.502;9.752;2023-05-23T04:44:55;14.00;99.90
1546;DHT22;766;51.502;9.752;2023-05-23T04:47:27;14.20;99.90
1546;DHT22;766;51.502;9.752;2023-05-23T04:50:03;13.90;99.90
1546;DHT22;766;51.502;9.752;2023-05-23T04:52:32;14.10;99.90
1546;DHT22;766;51.502;9.752;2023-05-23T04:55:04;14.10;99.90
1546;DHT22;766;51.502;9.752;2023-05-23T04:57:42;14.10;99.90
1546;DHT22;766;51.502;9.752;2023-05-23T05:00:13;14.00;99.90
1546;DHT22;766;51.502;9.752;2023-05-23T05:02:50;13.90;99.90
1546;DHT22;766;51.502;9.752;2023-05-23T05:05:24;13.90;99.90
1546;DHT22;766;51.502;9.752;2023-05-23T05:07:54;13.90;99.90
1546;DHT22;766;51.502;9.752;2023-05-23T05:10:24;13.60;99.90
1546;DHT22;766;51.502;9.752;2023-05-23T05:12:53;13.90;99.90
1546;DHT22;766;51.502;9.752;2023-05-23T05:15:26;13.70;99.90
1546;DHT22;766;51.502;9.752;2023-05-23T05:18:06;13.70;99.90
1546;DHT22;766;51.502;9.752;2023-05-23T05:20:53;13.60;99.90
1546;DHT22;766;51.502;9.752;2023-05-23T05:23:27;13.70;99.90
1546;DHT22;766;51.502;9.752;2023-05-23T05:25:57;13.80;99.90
1546;DHT22;766;51.502;9.752;2023-05-23T05:28:27;13.90;99.90
1546;DHT22;766;51.502;9.752;2023-05-23T05:30:57;14.00;99.90
1546;DHT22;766;51.502;9.752;2023-05-23T05:33:42;14.10;99.90
1546;DHT22;766;51.502;9.752;2023-05-23T05:36:14;14.00;99.90
1546;DHT22;766;51.502;9.752;2023-05-23T05:38:52;14.00;99.90
1546;DHT22;766;51.502;9.752;2023-05-23T05:41:23;13.80;99.90
1546;DHT22;766;51.502;9.752;2023-05-23T05:43:54;14.00;99.90
1546;DHT22;766;51.502;9.752;2023-05-23T05:46:24;14.00;99.90
1546;DHT22;766;51.502;9.752;2023-05-23T05:48:57;14.20;99.90
1546;DHT22;766;51.502;9.752;2023-05-23T05:51:26;14.20;99.90
1546;DHT22;766;51.502;9.752;2023-05-23T05:53:58;14.20;99.90
1546;DHT22;766;51.502;9.752;2023-05-23T05:56:37;14.30;99.90
1546;DHT22;766;51.502;9.752;2023-05-23T05:59:13;14.20;99.90
1546;DHT22;766;51.502;9.752;2023-05-23T06:01:47;14.00;99.90
1546;DHT22;766;51.502;9.752;2023-05-23T06:04:20;14.00;99.90
1546;DHT22;766;51.502;9.752;2023-05-23T06:06:53;14.20;99.90
1546;DHT22;766;51.502;9.752;2023-05-23T06:09:32;14.30;99.90
1546;DHT22;766;51.502;9.752;2023-05-23T06:12:06;14.10;99.90
1546;DHT22;766;51.502;9.752;2023-05-23T06:14:38;14.10;99.90
1546;DHT22;766;51.502;9.752;2023-05-23T06:17:14;14.10;99.90
1546;DHT22;766;51.502;9.752;2023-05-23T06:19:46;14.00;99.90
1546;DHT22;766;51.502;9.752;2023-05-23T06:22:23;13.90;99.90
1546;DHT22;766;51.502;9.752;2023-05-23T06:24:52;13.80;99.90
1546;DHT22;766;51.502;9.752;2023-05-23T06:27:21;13.80;99.90
1546;DHT22;766;51.502;9.752;2023-05-23T06:29:54;13.60;99.90
1546;DHT22;766;51.502;9.752;2023-05-23T06:32:25;13.60;99.90
1546;DHT22;766;51.502;9.752;2023-05-23T06:34:57;13.50;99.90
1546;DHT22;766;51.502;9.752;2023-05-23T06:37:28;13.60;99.90
1546;DHT22;766;51.502;9.752;2023-05-23T06:40:06;13.70;99.90
1546;DHT22;766;51.502;9.752;2023-05-23T06:42:37;13.70;99.90
1546;DHT22;766;51.502;9.752;2023-05-23T06:45:07;13.70;99.90
1546;DHT22;766;51.502;9.752;2023-05-23T06:47:40;13.70;99.90
1546;DHT22;766;51.502;9.752;2023-05-23T06:50:15;13.70;99.90
1546;DHT22;766;51.502;9.752;2023-05-23T06:52:46;13.80;99.90
1546;DHT22;766;51.502;9.752;2023-05-23T06:55:15;13.70;99.90
1546;DHT22;766;51.502;9.752;2023-05-23T06:57:45;13.60;99.90
1546;DHT22;766;51.502;9.752;2023-05-23T07:00:22;13.70;99.90
1546;DHT22;766;51.502;9.752;2023-05-23T07:02:54;14.00;99.90
1546;DHT22;766;51.502;9.752;2023-05-23T07:05:29;13.90;99.90
1546;DHT22;766;51.502;9.752;2023-05-23T07:07:59;13.80;99.90
1546;DHT22;766;51.502;9.752;2023-05-23T07:10:29;13.70;99.90
1546;DHT22;766;51.502;9.752;2023-05-23T07:13:01;13.60;99.90
1546;DHT22;766;51.502;9.752;2023-05-23T07:15:32;13.70;99.90
1546;DHT22;766;51.502;9.752;2023-05-23T07:18:02;13.80;99.90
1546;DHT22;766;51.502;9.752;2023-05-23T07:20:42;13.80;99.90
1546;DHT22;766;51.502;9.752;2023-05-23T07:23:16;13.80;99.90
1546;DHT22;766;51.502;9.752;2023-05-23T07:25:45;13.80;99.90
1546;DHT22;766;51.502;9.752;2023-05-23T07:28:29;13.80;99.90
1546;DHT22;766;51.502;9.752;2023-05-23T07:31:00;13.90;99.90
1546;DHT22;766;51.502;9.752;2023-05-23T07:33:28;14.00;99.90
1546;DHT22;766;51.502;9.752;2023-05-23T07:36:08;14.20;99.90
1546;DHT22;766;51.502;9.752;2023-05-23T07:38:41;14.10;99.90
1546;DHT22;766;51.502;9.752;2023-05-23T07:41:16;14.00;99.90
1546;DHT22;766;51.502;9.752;2023-05-23T07:43:45;14.00;99.90
1546;DHT22;766;51.502;9.752;2023-05-23T07:46:32;14.00;99.90
1546;DHT22;766;51.502;9.752;2023-05-23T07:49:13;14.00;99.90
1546;DHT22;766;51.502;9.752;2023-05-23T07:51:46;14.00;99.90
1546;DHT22;766;51.502;9.752;2023-05-23T07:54:25;14.10;99.90
1546;DHT22;766;51.502;9.752;2023-05-23T07:56:58;14.00;99.90
1546;DHT22;766;51.502;9.752;2023-05-23T07:59:27;14.00;99.90
1546;DHT22;766;51.502;9.752;2023-05-23T08:01:57;14.00;99.90
1546;DHT22;766;51.502;9.752;2023-05-23T08:04:28;14.00;99.90
1546;DHT22;766;51.502;9.752;2023-05-23T08:06:58;13.90;99.90
1546;DHT22;766;51.502;9.752;2023-05-23T08:09:32;13.90;99.90
1546;DHT22;766;51.502;9.752;2023-05-23T08:12:01;14.00;99.90
1546;DHT22;766;51.502;9.752;2023-05-23T08:14:30;14.00;99.90
1546;DHT22;766;51.502;9.752;2023-05-23T08:17:17;14.10;99.90
1546;DHT22;766;51.502;9.752;2023-05-23T08:19:49;13.90;99.90
1546;DHT22;766;51.502;9.752;2023-05-23T08:22:21;14.00;99.90
1546;DHT22;766;51.502;9.752;2023-05-23T08:24:55;13.90;99.90
1546;DHT22;766;51.502;9.752;2023-05-23T08:27:35;14.00;99.90
1546;DHT22;766;51.502;9.752;2023-05-23T08:30:15;14.00;99.90
1546;DHT22;766;51.502;9.752;2023-05-23T08:32:46;14.00;99.90
1546;DHT22;766;51.502;9.752;2023-05-23T08:35:16;14.10;99.90
1546;DHT22;766;51.502;9.752;2023-05-23T08:37:51;14.20;99.90
1546;DHT22;766;51.502;9.752;2023-05-23T08:40:30;14.10;99.90
1546;DHT22;766;51.502;9.752;2023-05-23T08:43:02;14.10;99.90
1546;DHT22;766;51.502;9.752;2023-05-23T08:45:31;14.10;99.90
1546;DHT22;766;51.502;9.752;2023-05-23T08:48:05;14.10;99.90
1546;DHT22;766;51.502;9.752;2023-05-23T08:50:44;14.10;99.90
1546;DHT22;766;51.502;9.752;2023-05-23T08:53:24;14.20;99.90
1546;DHT22;766;51.502;9.752;2023-05-23T08:55:57;14.20;99.90
1546;DHT22;766;51.502;9.752;2023-05-23T08:58:28;14.20;99.90
1546;DHT22;766;51.502;9.752;2023-05-23T09:00:58;14.20;99.90
1546;DHT22;766;51.502;9.752;2023-05-23T09:03:40;14.20;99.90
1546;DHT22;766;51.502;9.752;2023-05-23T09:06:11;14.30;99.90
1546;DHT22;766;51.502;9.752;2023-05-23T09:08:49;14.30;99.90
1546;DHT22;766;51.502;9.752;2023-05-23T09:11:19;14.30;99.90
1546;DHT22;766;51.502;9.752;2023-05-23T09:13:48;14.20;99.90
1546;DHT22;766;51.502;9.752;2023-05-23T09:16:17;14.10;99.90
1546;DHT22;766;51.502;9.752;2023-05-23T09:18:47;14.00;99.90
1546;DHT22;766;51.502;9.752;2023-05-23T09:21:21;13.90;99.90
1546;DHT22;766;51.502;9.752;2023-05-23T09:23:57;14.00;99.90
1546;DHT22;766;51.502;9.752;2023-05-23T09:26:27;14.10;99.90
1546;DHT22;766;51.502;9.752;2023-05-23T09:29:03;14.10;99.90
1546;DHT22;766;51.502;9.752;2023-05-23T09:31:33;14.20;99.90
1546;DHT22;766;51.502;9.752;2023-05-23T09:34:07;14.10;99.90
1546;DHT22;766;51.502;9.752;2023-05-23T09:36:40;14.10;99.90
1546;DHT22;766;51.502;9.752;2023-05-23T09:39:13;14.10;99.90
1546;DHT22;766;51.502;9.752;2023-05-23T09:41:47;14.00;99.90
1546;DHT22;766;51.502;9.752;2023-05-23T09:44:21;14.00;99.90
1546;DHT22;766;51.502;9.752;2023-05-23T09:47:06;14.00;99.90
1546;DHT22;766;51.502;9.752;2023-05-23T09:49:38;14.00;99.90
1546;DHT22;766;51.502;9.752;2023-05-23T09:52:07;14.00;99.90
1546;DHT22;766;51.502;9.752;2023-05-23T09:54:42;14.00;99.90
1546;DHT22;766;51.502;9.752;2023-05-23T09:57:18;14.10;99.90
1546;DHT22;766;51.502;9.752;2023-05-23T09:59:52;14.20;99.90
1546;DHT22;766;51.502;9.752;2023-05-23T10:02:57;14.00;99.90
1546;DHT22;766;51.502;9.752;2023-05-23T10:05:34;14.00;99.90
1546;DHT22;766;51.502;9.752;2023-05-23T10:08:10;14.00;99.90
1546;DHT22;766;51.502;9.752;2023-05-23T10:13:47;13.80;99.90
1546;DHT22;766;51.502;9.752;2023-05-23T10:16:20;13.90;99.90
1546;DHT22;766;51.502;9.752;2023-05-23T10:18:54;13.80;99.90
1546;DHT22;766;51.502;9.752;2023-05-23T10:21:29;13.60;99.90
1546;DHT22;766;51.502;9.752;2023-05-23T10:24:03;13.60;99.90
1546;DHT22;766;51.502;9.752;2023-05-23T10:26:32;13.70;99.90
1546;DHT22;766;51.502;9.752;2023-05-23T10:29:02;13.70;99.90
1546;DHT22;766;51.502;9.752;2023-05-23T10:31:31;13.80;99.90
1546;DHT22;766;51.502;9.752;2023-05-23T10:34:10;13.80;99.90
1546;DHT22;766;51.502;9.752;2023-05-23T10:36:47;13.70;99.90
1546;DHT22;766;51.502;9.752;2023-05-23T10:39:24;13.70;99.90
1546;DHT22;766;51.502;9.752;2023-05-23T10:41:59;13.70;99.90
1546;DHT22;766;51.502;9.752;2023-05-23T10:44:31;13.50;99.90
1546;DHT22;766;51.502;9.752;2023-05-23T10:47:00;13.40;99.90
1546;DHT22;766;51.502;9.752;2023-05-23T10:49:39;13.50;99.90
1546;DHT22;766;51.502;9.752;2023-05-23T10:52:09;13.60;99.90
1546;DHT22;766;51.502;9.752;2023-05-23T10:54:43;13.50;99.90
1546;DHT22;766;51.502;9.752;2023-05-23T10:57:16;13.50;99.90
1546;DHT22;766;51.502;9.752;2023-05-23T10:59:47;13.60;99.90
1546;DHT22;766;51.502;9.752;2023-05-23T11:02:24;13.50;99.90
1546;DHT22;766;51.502;9.752;2023-05-23T11:05:17;13.50;99.90
1546;DHT22;766;51.502;9.752;2023-05-23T11:07:46;13.60;99.90
1546;DHT22;766;51.502;9.752;2023-05-23T11:10:15;13.50;99.90
1546;DHT22;766;51.502;9.752;2023-05-23T11:12:48;13.50;99.90
1546;DHT22;766;51.502;9.752;2023-05-23T11:15:21;13.50;99.90
1546;DHT22;766;51.502;9.752;2023-05-23T11:17:57;13.50;99.90
1546;DHT22;766;51.502;9.752;2023-05-23T11:20:29;13.40;99.90
1546;DHT22;766;51.502;9.752;2023-05-23T11:23:00;13.50;99.90
1546;DHT22;766;51.502;9.752;2023-05-23T11:25:40;13.60;99.90
1546;DHT22;766;51.502;9.752;2023-05-23T11:28:15;13.50;99.90
1546;DHT22;766;51.502;9.752;2023-05-23T11:30:49;13.50;99.90
1546;DHT22;766;51.502;9.752;2023-05-23T11:33:21;13.50;99.90
1546;DHT22;766;51.502;9.752;2023-05-23T11:36:06;13.50;99.90
1546;DHT22;766;51.502;9.752;2023-05-23T11:38:40;13.60;99.90
1546;DHT22;766;51.502;9.752;2023-05-23T11:41:08;13.50;99.90
1546;DHT22;766;51.502;9.752;2023-05-23T11:43:48;13.50;99.90
1546;DHT22;766;51.502;9.752;2023-05-23T11:46:20;13.70;99.90
1546;DHT22;766;51.502;9.752;2023-05-23T11:48:50;13.70;99.90
1546;DHT22;766;51.502;9.752;2023-05-23T11:51:23;13.80;99.90
1546;DHT22;766;51.502;9.752;2023-05-23T11:54:00;13.90;99.90
1546;DHT22;766;51.502;9.752;2023-05-23T11:56:40;13.60;99.90
1546;DHT22;766;51.502;9.752;2023-05-23T11:59:13;13.50;99.90
1546;DHT22;766;51.502;9.752;2023-05-23T12:01:45;13.40;99.90
1546;DHT22;766;51.502;9.752;2023-05-23T12:04:16;13.20;99.90
1546;DHT22;766;51.502;9.752;2023-05-23T12:06:46;13.20;99.90
1546;DHT22;766;51.502;9.752;2023-05-23T12:09:16;13.20;99.90
1546;DHT22;766;51.502;9.752;2023-05-23T12:11:45;13.20;99.90
1546;DHT22;766;51.502;9.752;2023-05-23T12:14:15;13.10;99.90
1546;DHT22;766;51.502;9.752;2023-05-23T12:16:48;13.20;99.90
1546;DHT22;766;51.502;9.752;2023-05-23T12:19:18;13.10;99.90
1546;DHT22;766;51.502;9.752;2023-05-23T12:21:48;13.10;99.90
1546;DHT22;766;51.502;9.752;2023-05-23T12:24:18;13.20;99.90
1546;DHT22;766;51.502;9.752;2023-05-23T12:26:52;13.20;99.90
1546;DHT22;766;51.502;9.752;2023-05-23T12:29:27;13.30;99.90
1546;DHT22;766;51.502;9.752;2023-05-23T12:32:10;13.30;99.90
1546;DHT22;766;51.502;9.752;2023-05-23T12:34:40;13.30;99.90
1546;DHT22;766;51.502;9.752;2023-05-23T12:37:12;13.50;99.90
1546;DHT22;766;51.502;9.752;2023-05-23T12:39:47;13.20;99.90
1546;DHT22;766;51.502;9.752;2023-05-23T12:42:15;13.20;99.90
1546;DHT22;766;51.502;9.752;2023-05-23T12:44:44;13.20;99.90
1546;DHT22;766;51.502;9.752;2023-05-23T12:47:18;13.30;99.90
1546;DHT22;766;51.502;9.752;2023-05-23T12:49:47;13.30;99.90
1546;DHT22;766;51.502;9.752;2023-05-23T12:52:16;13.30;99.90
1546;DHT22;766;51.502;9.752;2023-05-23T12:54:45;13.20;99.90
1546;DHT22;766;51.502;9.752;2023-05-23T12:57:13;13.20;99.90
1546;DHT22;766;51.502;9.752;2023-05-23T12:59:42;13.30;99.90
1546;DHT22;766;51.502;9.752;2023-05-23T13:02:11;13.00;99.90
1546;DHT22;766;51.502;9.752;2023-05-23T13:04:41;12.90;99.90
1546;DHT22;766;51.502;9.752;2023-05-23T13:07:09;12.90;99.90
1546;DHT22;766;51.502;9.752;2023-05-23T13:09:38;12.80;99.90
1546;DHT22;766;51.502;9.752;2023-05-23T13:12:07;12.80;99.90
1546;DHT22;766;51.502;9.752;2023-05-23T13:14:39;12.80;99.90
1546;DHT22;766;51.502;9.752;2023-05-23T13:17:07;12.80;99.90
1546;DHT22;766;51.502;9.752;2023-05-23T13:19:43;13.00;99.90
1546;DHT22;766;51.502;9.752;2023-05-23T13:22:20;13.00;99.90
1546;DHT22;766;51.502;9.752;2023-05-23T13:24:55;12.90;99.90
1546;DHT22;766;51.502;9.752;2023-05-23T13:27:23;12.70;99.90
1546;DHT22;766;51.502;9.752;2023-05-23T13:30:02;12.50;99.90
1546;DHT22;766;51.502;9.752;2023-05-23T13:32:31;12.50;99.90
1546;DHT22;766;51.502;9.752;2023-05-23T13:35:05;12.40;99.90
1546;DHT22;766;51.502;9.752;2023-05-23T13:37:33;12.50;99.90
1546;DHT22;766;51.502;9.752;2023-05-23T13:40:02;12.50;99.90
1546;DHT22;766;51.502;9.752;2023-05-23T13:42:31;12.50;99.90
1546;DHT22;766;51.502;9.752;2023-05-23T13:45:00;12.70;99.90
1546;DHT22;766;51.502;9.752;2023-05-23T13:47:31;13.00;99.90
1546;DHT22;766;51.502;9.752;2023-05-23T13:49:59;13.40;99.90
1546;DHT22;766;51.502;9.752;2023-05-23T13:52:30;13.80;99.90
1546;DHT22;766;51.502;9.752;2023-05-23T13:54:59;14.30;99.90
1546;DHT22;766;51.502;9.752;2023-05-23T13:57:28;14.50;99.90
1546;DHT22;766;51.502;9.752;2023-05-23T13:59:57;14.60;99.90
1546;DHT22;766;51.502;9.752;2023-05-23T14:02:26;14.60;99.90
1546;DHT22;766;51.502;9.752;2023-05-23T14:04:58;14.60;99.90
1546;DHT22;766;51.502;9.752;2023-05-23T14:07:26;14.60;99.90
1546;DHT22;766;51.502;9.752;2023-05-23T14:09:57;14.60;99.90
1546;DHT22;766;51.502;9.752;2023-05-23T14:12:25;14.60;99.90
1546;DHT22;766;51.502;9.752;2023-05-23T14:14:55;14.70;99.90
1546;DHT22;766;51.502;9.752;2023-05-23T14:17:25;14.80;99.90
1546;DHT22;766;51.502;9.752;2023-05-23T14:19:53;14.70;99.90
1546;DHT22;766;51.502;9.752;2023-05-23T14:22:22;14.50;99.90
1546;DHT22;766;51.502;9.752;2023-05-23T14:24:52;14.50;99.90
1546;DHT22;766;51.502;9.752;2023-05-23T14:27:22;14.40;99.90
1546;DHT22;766;51.502;9.752;2023-05-23T14:29:53;14.30;99.90
1546;DHT22;766;51.502;9.752;2023-05-23T14:32:22;14.20;99.90
1546;DHT22;766;51.502;9.752;2023-05-23T14:34:53;14.00;99.90
1546;DHT22;766;51.502;9.752;2023-05-23T14:37:22;14.00;99.90
1546;DHT22;766;51.502;9.752;2023-05-23T14:39:50;13.80;99.90
1546;DHT22;766;51.502;9.752;2023-05-23T14:42:24;13.70;99.90
1546;DHT22;766;51.502;9.752;2023-05-23T14:44:53;13.70;99.90
1546;DHT22;766;51.502;9.752;2023-05-23T14:47:31;13.90;99.90
1546;DHT22;766;51.502;9.752;2023-05-23T14:50:03;14.00;99.90
1546;DHT22;766;51.502;9.752;2023-05-23T14:52:34;14.00;99.90
1546;DHT22;766;51.502;9.752;2023-05-23T14:55:04;14.30;99.90
1546;DHT22;766;51.502;9.752;2023-05-23T14:57:34;14.60;99.90
1546;DHT22;766;51.502;9.752;2023-05-23T15:00:04;14.60;99.90
1546;DHT22;766;51.502;9.752;2023-05-23T15:02:33;14.50;99.90
1546;DHT22;766;51.502;9.752;2023-05-23T15:05:02;14.70;99.90
1546;DHT22;766;51.502;9.752;2023-05-23T15:07:33;14.90;99.90
1546;DHT22;766;51.502;9.752;2023-05-23T15:10:04;14.90;99.90
1546;DHT22;766;51.502;9.752;2023-05-23T15:12:34;14.80;99.90
1546;DHT22;766;51.502;9.752;2023-05-23T15:15:03;14.60;99.90
1546;DHT22;766;51.502;9.752;2023-05-23T15:17:32;14.40;99.90
1546;DHT22;766;51.502;9.752;2023-05-23T15:20:01;14.40;99.90
1546;DHT22;766;51.502;9.752;2023-05-23T15:22:33;14.10;99.90
1546;DHT22;766;51.502;9.752;2023-05-23T15:25:07;14.10;99.90
1546;DHT22;766;51.502;9.752;2023-05-23T15:27:37;14.10;99.90
1546;DHT22;766;51.502;9.752;2023-05-23T15:30:08;14.00;99.90
1546;DHT22;766;51.502;9.752;2023-05-23T15:32:36;14.00;99.90
1546;DHT22;766;51.502;9.752;2023-05-23T15:35:06;14.00;99.90
1546;DHT22;766;51.502;9.752;2023-05-23T15:37:35;14.10;99.90
1546;DHT22;766;51.502;9.752;2023-05-23T15:40:05;14.10;99.90
1546;DHT22;766;51.502;9.752;2023-05-23T15:42:34;14.20;99.90
1546;DHT22;766;51.502;9.752;2023-05-23T15:45:06;14.20;99.90
1546;DHT22;766;51.502;9.752;2023-05-23T15:47:36;14.20;99.90
1546;DHT22;766;51.502;9.752;2023-05-23T15:50:07;14.40;99.90
1546;DHT22;766;51.502;9.752;2023-05-23T15:52:40;14.60;99.90
1546;DHT22;766;51.502;9.752;2023-05-23T15:55:09;14.60;99.90
1546;DHT22;766;51.502;9.752;2023-05-23T15:57:38;14.70;99.90
1546;DHT22;766;51.502;9.752;2023-05-23T16:00:12;14.80;99.90
1546;DHT22;766;51.502;9.752;2023-05-23T16:02:40;14.90;99.90
1546;DHT22;766;51.502;9.752;2023-05-23T16:05:09;15.00;99.90
1546;DHT22;766;51.502;9.752;2023-05-23T16:07:38;15.10;99.90
1546;DHT22;766;51.502;9.752;2023-05-23T16:10:07;15.20;99.90
1546;DHT22;766;51.502;9.752;2023-05-23T16:12:39;15.00;99.90
1546;DHT22;766;51.502;9.752;2023-05-23T16:15:12;14.60;99.90
1546;DHT22;766;51.502;9.752;2023-05-23T16:17:41;14.70;99.90
1546;DHT22;766;51.502;9.752;2023-05-23T16:20:12;14.50;99.90
1546;DHT22;766;51.502;9.752;2023-05-23T16:22:42;14.50;99.90
1546;DHT22;766;51.502;9.752;2023-05-23T16:25:14;14.40;99.90
1546;DHT22;766;51.502;9.752;2023-05-23T16:27:43;14.50;99.90
1546;DHT22;766;51.502;9.752;2023-05-23T16:30:14;14.50;99.90
1546;DHT22;766;51.502;9.752;2023-05-23T16:32:43;14.30;99.90
1546;DHT22;766;51.502;9.752;2023-05-23T16:35:12;14.40;99.90
1546;DHT22;766;51.502;9.752;2023-05-23T16:37:40;14.50;99.90
1546;DHT22;766;51.502;9.752;2023-05-23T16:40:10;14.50;99.90
1546;DHT22;766;51.502;9.752;2023-05-23T16:42:39;14.40;99.90
1546;DHT22;766;51.502;9.752;2023-05-23T16:45:08;14.40;99.90
1546;DHT22;766;51.502;9.752;2023-05-23T16:47:38;14.20;99.90
1546;DHT22;766;51.502;9.752;2023-05-23T16:50:07;14.10;99.90
1546;DHT22;766;51.502;9.752;2023-05-23T16:52:39;13.90;99.90
1546;DHT22;766;51.502;9.752;2023-05-23T16:55:07;14.00;99.90